sensor_id;sensor_type;location;lat;lon;timestamp;temperature;humidity
21149;DHT22;10732;51.472;6.466;2023-08-06T00:00:13;15.50;99.90
21149;DHT22;10732;51.472;6.466;2023-08-06T00:02:38;15.50;99.90
21149;DHT22;10732;51.472;6.466;2023-08-06T00:05:04;15.40;99.90
21149;DHT22;10732;51.472;6.466;2023-08-06T00:07:29;15.40;99.90
21149;DHT22;10732;51.472;6.466;2023-08-06T00:09:55;15.40;99.90
21149;DHT22;10732;51.472;6.466;2023-08-06T00:12:21;15.50;99.90
21149;DHT22;10732;51.472;6.466;2023-08-06T00:14:50;15.50;99.90
21149;DHT22;10732;51.472;6.466;2023-08-06T00:17:16;15.50;99.90
21149;DHT22;10732;51.472;6.466;2023-08-06T00:19:42;15.50;99.90
21149;DHT22;10732;51.472;6.466;2023-08-06T00:22:07;15.50;99.90
21149;DHT22;10732;51.472;6.466;2023-08-06T00:24:33;15.50;99.90
21149;DHT22;10732;51.472;6.466;2023-08-06T00:26:59;15.50;99.90
21149;DHT22;10732;51.472;6.466;2023-08-06T00:29:25;15.50;99.90
21149;DHT22;10732;51.472;6.466;2023-08-06T00:31:50;15.60;99.90
21149;DHT22;10732;51.472;6.466;2023-08-06T00:34:16;15.70;99.90
21149;DHT22;10732;51.472;6.466;2023-08-06T00:36:41;15.70;99.90
21149;DHT22;10732;51.472;6.466;2023-08-06T00:39:07;15.70;99.90
21149;DHT22;10732;51.472;6.466;2023-08-06T00:41:32;15.70;99.90
21149;DHT22;10732;51.472;6.466;2023-08-06T00:43:58;15.70;99.90
21149;DHT22;10732;51.472;6.466;2023-08-06T00:46:23;15.70;99.90
21149;DHT22;10732;51.472;6.466;2023-08-06T00:48:50;15.70;99.90
21149;DHT22;10732;51.472;6.466;2023-08-06T00:51:16;15.70;99.90
21149;DHT22;10732;51.472;6.466;2023-08-06T00:53:42;15.70;99.90
21149;DHT22;10732;51.472;6.466;2023-08-06T00:56:09;15.70;99.90
21149;DHT22;10732;51.472;6.466;2023-08-06T00:58:35;15.70;99.90
21149;DHT22;10732;51.472;6.466;2023-08-06T01:01:02;15.70;99.90
21149;DHT22;10732;51.472;6.466;2023-08-06T01:03:27;15.50;99.90
21149;DHT22;10732;51.472;6.466;2023-08-06T01:05:53;15.50;99.90
21149;DHT22;10732;51.472;6.466;2023-08-06T01:11:11;15.60;99.90
21149;DHT22;10732;51.472;6.466;2023-08-06T01:13:47;15.60;99.90
21149;DHT22;10732;51.472;6.466;2023-08-06T01:16:18;15.60;99.90
21149;DHT22;10732;51.472;6.466;2023-08-06T01:18:47;15.50;99.90
21149;DHT22;10732;51.472;6.466;2023-08-06T01:21:18;15.50;99.90
21149;DHT22;10732;51.472;6.466;2023-08-06T01:23:45;15.50;99.90
21149;DHT22;10732;51.472;6.466;2023-08-06T01:26:33;15.50;99.90
21149;DHT22;10732;51.472;6.466;2023-08-06T01:29:07;15.40;99.90
21149;DHT22;10732;51.472;6.466;2023-08-06T01:31:37;15.50;99.90
21149;DHT22;10732;51.472;6.466;2023-08-06T01:34:05;15.50;99.90
21149;DHT22;10732;51.472;6.466;2023-08-06T01:36:34;15.50;99.90
21149;DHT22;10732;51.472;6.466;2023-08-06T01:39:00;15.50;99.90
21149;DHT22;10732;51.472;6.466;2023-08-06T01:41:26;15.50;99.90
21149;DHT22;10732;51.472;6.466;2023-08-06T01:43:51;15.50;99.90
21149;DHT22;10732;51.472;6.466;2023-08-06T01:46:17;15.60;99.90
21149;DHT22;10732;51.472;6.466;2023-08-06T01:48:43;15.60;99.90
21149;DHT22;10732;51.472;6.466;2023-08-06T01:51:08;15.60;99.90
21149;DHT22;10732;51.472;6.466;2023-08-06T01:53:34;15.60;99.90
21149;DHT22;10732;51.472;6.466;2023-08-06T01:55:59;15.70;99.90
21149;DHT22;10732;51.472;6.466;2023-08-06T01:58:25;15.70;99.90
21149;DHT22;10732;51.472;6.466;2023-08-06T02:00:51;15.80;99.90
21149;DHT22;10732;51.472;6.466;2023-08-06T02:03:16;15.70;99.90
21149;DHT22;10732;51.472;6.466;2023-08-06T02:05:42;15.60;99.90
21149;DHT22;10732;51.472;6.466;2023-08-06T02:08:08;15.60;99.90
21149;DHT22;10732;51.472;6.466;2023-08-06T02:10:33;15.60;99.90
21149;DHT22;10732;51.472;6.466;2023-08-06T02:12:59;15.70;99.90
21149;DHT22;10732;51.472;6.466;2023-08-06T02:15:25;15.70;99.90
21149;DHT22;10732;51.472;6.466;2023-08-06T02:17:50;15.60;99.90
21149;DHT22;10732;51.472;6.466;2023-08-06T02:20:16;15.60;99.90
21149;DHT22;10732;51.472;6.466;2023-08-06T02:22:41;15.50;99.90
21149;DHT22;10732;51.472;6.466;2023-08-06T02:25:07;15.60;99.90
21149;DHT22;10732;51.472;6.466;2023-08-06T02:27:33;15.50;99.90
21149;DHT22;10732;51.472;6.466;2023-08-06T02:29:58;15.50;99.90
21149;DHT22;10732;51.472;6.466;2023-08-06T02:32:24;15.40;99.90
21149;DHT22;10732;51.472;6.466;2023-08-06T02:34:49;15.40;99.90
21149;DHT22;10732;51.472;6.466;2023-08-06T02:37:15;15.40;99.90
21149;DHT22;10732;51.472;6.466;2023-08-06T02:39:40;15.40;99.90
21149;DHT22;10732;51.472;6.466;2023-08-06T02:42:08;15.40;99.90
21149;DHT22;10732;51.472;6.466;2023-08-06T02:44:34;15.40;99.90
21149;DHT22;10732;51.472;6.466;2023-08-06T02:47:00;15.50;99.90
21149;DHT22;10732;51.472;6.466;2023-08-06T02:49:26;15.50;99.90
21149;DHT22;10732;51.472;6.466;2023-08-06T02:51:52;15.50;99.90
21149;DHT22;10732;51.472;6.466;2023-08-06T02:54:18;15.40;99.90
21149;DHT22;10732;51.472;6.466;2023-08-06T02:56:45;15.40;99.90
21149;DHT22;10732;51.472;6.466;2023-08-06T02:59:12;15.30;99.90
21149;DHT22;10732;51.472;6.466;2023-08-06T03:01:37;15.30;99.90
21149;DHT22;10732;51.472;6.466;2023-08-06T03:04:03;15.30;99.90
21149;DHT22;10732;51.472;6.466;2023-08-06T03:06:29;15.20;99.90
21149;DHT22;10732;51.472;6.466;2023-08-06T03:08:54;15.20;99.90
21149;DHT22;10732;51.472;6.466;2023-08-06T03:11:20;15.20;99.90
21149;DHT22;10732;51.472;6.466;2023-08-06T03:13:47;15.30;99.90
21149;DHT22;10732;51.472;6.466;2023-08-06T03:16:12;15.20;99.90
21149;DHT22;10732;51.472;6.466;2023-08-06T03:18:38;15.20;99.90
21149;DHT22;10732;51.472;6.466;2023-08-06T03:21:04;15.20;99.90
21149;DHT22;10732;51.472;6.466;2023-08-06T03:23:29;15.20;99.90
21149;DHT22;10732;51.472;6.466;2023-08-06T03:25:55;15.20;99.90
21149;DHT22;10732;51.472;6.466;2023-08-06T03:28:20;15.20;99.90
21149;DHT22;10732;51.472;6.466;2023-08-06T03:30:47;15.10;99.90
21149;DHT22;10732;51.472;6.466;2023-08-06T03:33:13;15.10;99.90
21149;DHT22;10732;51.472;6.466;2023-08-06T03:35:38;15.10;99.90
21149;DHT22;10732;51.472;6.466;2023-08-06T03:38:04;15.10;99.90
21149;DHT22;10732;51.472;6.466;2023-08-06T03:40:30;15.00;99.90
21149;DHT22;10732;51.472;6.466;2023-08-06T03:42:55;15.00;99.90
21149;DHT22;10732;51.472;6.466;2023-08-06T03:45:21;15.00;99.90
21149;DHT22;10732;51.472;6.466;2023-08-06T03:47:46;15.00;99.90
21149;DHT22;10732;51.472;6.466;2023-08-06T03:50:12;14.90;99.90
21149;DHT22;10732;51.472;6.466;2023-08-06T03:52:37;14.90;99.90
21149;DHT22;10732;51.472;6.466;2023-08-06T03:55:03;14.90;99.90
21149;DHT22;10732;51.472;6.466;2023-08-06T03:57:29;15.00;99.90
21149;DHT22;10732;51.472;6.466;2023-08-06T03:59:54;14.90;99.90
21149;DHT22;10732;51.472;6.466;2023-08-06T04:02:20;14.90;99.90
21149;DHT22;10732;51.472;6.466;2023-08-06T04:04:45;14.90;99.90
21149;DHT22;10732;51.472;6.466;2023-08-06T04:07:11;14.90;99.90
21149;DHT22;10732;51.472;6.466;2023-08-06T04:09:52;14.90;99.90
21149;DHT22;10732;51.472;6.466;2023-08-06T04:12:18;14.90;99.90
21149;DHT22;10732;51.472;6.466;2023-08-06T04:14:43;14.90;99.90
21149;DHT22;10732;51.472;6.466;2023-08-06T04:17:09;14.90;99.90
21149;DHT22;10732;51.472;6.466;2023-08-06T04:19:34;14.90;99.90
21149;DHT22;10732;51.472;6.466;2023-08-06T04:22:00;14.90;99.90
21149;DHT22;10732;51.472;6.466;2023-08-06T04:24:25;14.90;99.90
21149;DHT22;10732;51.472;6.466;2023-08-06T04:26:51;15.00;99.90
21149;DHT22;10732;51.472;6.466;2023-08-06T04:29:17;15.00;99.90
21149;DHT22;10732;51.472;6.466;2023-08-06T04:31:42;15.00;99.90
21149;DHT22;10732;51.472;6.466;2023-08-06T04:34:07;15.00;99.90
21149;DHT22;10732;51.472;6.466;2023-08-06T04:36:34;15.10;99.90
21149;DHT22;10732;51.472;6.466;2023-08-06T04:39:00;15.10;99.90
21149;DHT22;10732;51.472;6.466;2023-08-06T04:41:25;15.10;99.90
21149;DHT22;10732;51.472;6.466;2023-08-06T04:43:51;15.20;99.90
21149;DHT22;10732;51.472;6.466;2023-08-06T04:46:16;15.20;99.90
21149;DHT22;10732;51.472;6.466;2023-08-06T04:48:42;15.20;99.90
21149;DHT22;10732;51.472;6.466;2023-08-06T04:51:07;15.30;99.90
21149;DHT22;10732;51.472;6.466;2023-08-06T04:53:33;15.40;99.90
21149;DHT22;10732;51.472;6.466;2023-08-06T04:55:58;15.40;99.90
21149;DHT22;10732;51.472;6.466;2023-08-06T04:58:24;15.40;99.90
21149;DHT22;10732;51.472;6.466;2023-08-06T05:00:49;15.40;99.90
21149;DHT22;10732;51.472;6.466;2023-08-06T05:03:15;15.50;99.90
21149;DHT22;10732;51.472;6.466;2023-08-06T05:05:41;15.50;99.90
21149;DHT22;10732;51.472;6.466;2023-08-06T05:08:07;15.60;99.90
21149;DHT22;10732;51.472;6.466;2023-08-06T05:10:32;15.70;99.90
21149;DHT22;10732;51.472;6.466;2023-08-06T05:12:58;15.60;99.90
21149;DHT22;10732;51.472;6.466;2023-08-06T05:15:23;15.50;99.90
21149;DHT22;10732;51.472;6.466;2023-08-06T05:17:50;15.60;99.90
21149;DHT22;10732;51.472;6.466;2023-08-06T05:20:16;15.50;99.90
21149;DHT22;10732;51.472;6.466;2023-08-06T05:22:43;15.60;99.90
21149;DHT22;10732;51.472;6.466;2023-08-06T05:25:08;15.50;99.90
21149;DHT22;10732;51.472;6.466;2023-08-06T05:27:34;15.60;99.90
21149;DHT22;10732;51.472;6.466;2023-08-06T05:30:00;15.70;99.90
21149;DHT22;10732;51.472;6.466;2023-08-06T05:32:25;15.70;99.90
21149;DHT22;10732;51.472;6.466;2023-08-06T05:34:51;15.70;99.90
21149;DHT22;10732;51.472;6.466;2023-08-06T05:37:16;15.80;99.90
21149;DHT22;10732;51.472;6.466;2023-08-06T05:39:42;16.00;99.90
21149;DHT22;10732;51.472;6.466;2023-08-06T05:42:07;16.20;99.90
21149;DHT22;10732;51.472;6.466;2023-08-06T05:44:33;16.30;99.90
21149;DHT22;10732;51.472;6.466;2023-08-06T05:46:58;16.50;99.90
21149;DHT22;10732;51.472;6.466;2023-08-06T05:49:24;16.50;99.90
21149;DHT22;10732;51.472;6.466;2023-08-06T05:51:50;16.60;99.90
21149;DHT22;10732;51.472;6.466;2023-08-06T05:54:18;16.80;99.90
21149;DHT22;10732;51.472;6.466;2023-08-06T05:56:44;17.00;99.90
21149;DHT22;10732;51.472;6.466;2023-08-06T05:59:09;17.10;99.90
21149;DHT22;10732;51.472;6.466;2023-08-06T06:01:35;17.40;99.90
21149;DHT22;10732;51.472;6.466;2023-08-06T06:04:01;17.40;99.90
21149;DHT22;10732;51.472;6.466;2023-08-06T06:06:26;17.40;99.90
21149;DHT22;10732;51.472;6.466;2023-08-06T06:08:52;17.30;99.90
21149;DHT22;10732;51.472;6.466;2023-08-06T06:11:17;17.50;99.90
21149;DHT22;10732;51.472;6.466;2023-08-06T06:13:47;17.90;99.90
21149;DHT22;10732;51.472;6.466;2023-08-06T06:16:13;18.30;99.90
21149;DHT22;10732;51.472;6.466;2023-08-06T06:18:38;18.50;99.90
21149;DHT22;10732;51.472;6.466;2023-08-06T06:21:04;18.50;99.90
21149;DHT22;10732;51.472;6.466;2023-08-06T06:23:29;18.20;99.90
21149;DHT22;10732;51.472;6.466;2023-08-06T06:25:55;18.00;99.90
21149;DHT22;10732;51.472;6.466;2023-08-06T06:28:21;18.40;99.90
21149;DHT22;10732;51.472;6.466;2023-08-06T06:30:47;18.90;99.90
21149;DHT22;10732;51.472;6.466;2023-08-06T06:33:13;18.70;99.90
21149;DHT22;10732;51.472;6.466;2023-08-06T06:35:38;18.70;99.90
21149;DHT22;10732;51.472;6.466;2023-08-06T06:38:04;18.90;99.90
21149;DHT22;10732;51.472;6.466;2023-08-06T06:40:29;18.80;99.90
21149;DHT22;10732;51.472;6.466;2023-08-06T06:42:55;18.90;99.90
21149;DHT22;10732;51.472;6.466;2023-08-06T06:45:20;19.20;99.90
21149;DHT22;10732;51.472;6.466;2023-08-06T06:47:46;19.10;99.90
21149;DHT22;10732;51.472;6.466;2023-08-06T06:50:11;19.10;99.90
21149;DHT22;10732;51.472;6.466;2023-08-06T06:52:37;19.50;99.90
21149;DHT22;10732;51.472;6.466;2023-08-06T06:55:03;19.90;1.00
21149;DHT22;10732;51.472;6.466;2023-08-06T06:57:28;19.60;1.00
21149;DHT22;10732;51.472;6.466;2023-08-06T06:59:54;20.00;1.00
21149;DHT22;10732;51.472;6.466;2023-08-06T07:02:19;19.70;1.00
21149;DHT22;10732;51.472;6.466;2023-08-06T07:04:45;19.90;1.00
21149;DHT22;10732;51.472;6.466;2023-08-06T07:07:10;20.10;1.00
21149;DHT22;10732;51.472;6.466;2023-08-06T07:09:36;20.30;1.00
21149;DHT22;10732;51.472;6.466;2023-08-06T07:12:02;21.10;1.00
21149;DHT22;10732;51.472;6.466;2023-08-06T07:14:28;21.40;1.00
21149;DHT22;10732;51.472;6.466;2023-08-06T07:16:54;22.00;99.90
21149;DHT22;10732;51.472;6.466;2023-08-06T07:19:20;22.50;1.00
21149;DHT22;10732;51.472;6.466;2023-08-06T07:21:46;23.50;1.00
21149;DHT22;10732;51.472;6.466;2023-08-06T07:24:11;23.20;1.00
21149;DHT22;10732;51.472;6.466;2023-08-06T07:26:37;22.50;1.00
21149;DHT22;10732;51.472;6.466;2023-08-06T07:29:03;22.00;1.00
21149;DHT22;10732;51.472;6.466;2023-08-06T07:31:28;22.40;99.90
21149;DHT22;10732;51.472;6.466;2023-08-06T07:33:54;22.20;99.90
21149;DHT22;10732;51.472;6.466;2023-08-06T07:36:19;23.30;1.00
21149;DHT22;10732;51.472;6.466;2023-08-06T07:38:45;22.40;99.90
21149;DHT22;10732;51.472;6.466;2023-08-06T07:41:11;22.40;99.90
21149;DHT22;10732;51.472;6.466;2023-08-06T07:43:36;23.50;1.00
21149;DHT22;10732;51.472;6.466;2023-08-06T07:46:02;24.30;99.40
21149;DHT22;10732;51.472;6.466;2023-08-06T07:48:28;25.40;1.00
21149;DHT22;10732;51.472;6.466;2023-08-06T07:50:54;25.80;99.90
21149;DHT22;10732;51.472;6.466;2023-08-06T07:53:24;25.70;99.90
21149;DHT22;10732;51.472;6.466;2023-08-06T07:55:52;25.00;99.90
21149;DHT22;10732;51.472;6.466;2023-08-06T07:58:19;24.10;1.00
21149;DHT22;10732;51.472;6.466;2023-08-06T08:00:45;22.80;1.00
21149;DHT22;10732;51.472;6.466;2023-08-06T08:03:15;22.20;1.00
21149;DHT22;10732;51.472;6.466;2023-08-06T08:05:42;21.70;1.00
21149;DHT22;10732;51.472;6.466;2023-08-06T08:08:07;21.70;1.00
21149;DHT22;10732;51.472;6.466;2023-08-06T08:10:34;21.50;1.00
21149;DHT22;10732;51.472;6.466;2023-08-06T08:13:00;21.30;1.00
21149;DHT22;10732;51.472;6.466;2023-08-06T08:15:27;21.20;99.90
21149;DHT22;10732;51.472;6.466;2023-08-06T08:17:53;21.50;1.00
21149;DHT22;10732;51.472;6.466;2023-08-06T08:20:19;21.80;1.00
21149;DHT22;10732;51.472;6.466;2023-08-06T08:22:46;22.70;1.00
21149;DHT22;10732;51.472;6.466;2023-08-06T08:25:13;23.60;99.90
21149;DHT22;10732;51.472;6.466;2023-08-06T08:27:38;24.10;1.00
21149;DHT22;10732;51.472;6.466;2023-08-06T08:30:04;23.90;1.00
21149;DHT22;10732;51.472;6.466;2023-08-06T08:32:30;23.60;94.70
21149;DHT22;10732;51.472;6.466;2023-08-06T08:34:56;23.00;23.70
21149;DHT22;10732;51.472;6.466;2023-08-06T08:37:22;22.60;99.90
21149;DHT22;10732;51.472;6.466;2023-08-06T08:39:48;22.20;99.90
21149;DHT22;10732;51.472;6.466;2023-08-06T08:42:15;21.40;99.90
21149;DHT22;10732;51.472;6.466;2023-08-06T08:44:42;21.20;1.00
21149;DHT22;10732;51.472;6.466;2023-08-06T08:47:07;21.30;99.90
21149;DHT22;10732;51.472;6.466;2023-08-06T08:49:36;21.40;99.90
21149;DHT22;10732;51.472;6.466;2023-08-06T08:52:02;21.50;1.00
21149;DHT22;10732;51.472;6.466;2023-08-06T08:54:32;22.30;1.00
21149;DHT22;10732;51.472;6.466;2023-08-06T08:56:58;23.20;99.90
21149;DHT22;10732;51.472;6.466;2023-08-06T08:59:23;24.20;99.90
21149;DHT22;10732;51.472;6.466;2023-08-06T09:01:50;25.70;99.90
21149;DHT22;10732;51.472;6.466;2023-08-06T09:04:17;24.80;1.00
21149;DHT22;10732;51.472;6.466;2023-08-06T09:06:46;24.40;1.00
21149;DHT22;10732;51.472;6.466;2023-08-06T09:09:15;23.70;1.00
21149;DHT22;10732;51.472;6.466;2023-08-06T09:11:45;23.50;1.00
21149;DHT22;10732;51.472;6.466;2023-08-06T09:14:14;23.30;1.00
21149;DHT22;10732;51.472;6.466;2023-08-06T09:16:40;23.50;99.90
21149;DHT22;10732;51.472;6.466;2023-08-06T09:19:09;23.40;99.90
21149;DHT22;10732;51.472;6.466;2023-08-06T09:21:41;23.10;1.00
21149;DHT22;10732;51.472;6.466;2023-08-06T09:24:14;23.00;1.00
21149;DHT22;10732;51.472;6.466;2023-08-06T09:26:40;22.40;99.90
21149;DHT22;10732;51.472;6.466;2023-08-06T09:29:07;22.10;1.00
21149;DHT22;10732;51.472;6.466;2023-08-06T09:34:18;21.80;1.00
21149;DHT22;10732;51.472;6.466;2023-08-06T09:36:52;22.00;99.90
21149;DHT22;10732;51.472;6.466;2023-08-06T09:39:18;22.00;99.90
21149;DHT22;10732;51.472;6.466;2023-08-06T09:41:45;21.90;99.90
21149;DHT22;10732;51.472;6.466;2023-08-06T09:44:23;21.80;1.00
21149;DHT22;10732;51.472;6.466;2023-08-06T09:47:00;21.50;1.00
21149;DHT22;10732;51.472;6.466;2023-08-06T09:49:27;21.10;1.00
21149;DHT22;10732;51.472;6.466;2023-08-06T09:51:54;20.60;1.00
21149;DHT22;10732;51.472;6.466;2023-08-06T09:54:24;20.30;1.00
21149;DHT22;10732;51.472;6.466;2023-08-06T09:56:50;19.80;1.00
21149;DHT22;10732;51.472;6.466;2023-08-06T09:59:17;19.50;1.00
21149;DHT22;10732;51.472;6.466;2023-08-06T10:01:42;19.10;99.90
21149;DHT22;10732;51.472;6.466;2023-08-06T10:04:08;18.60;99.90
21149;DHT22;10732;51.472;6.466;2023-08-06T10:06:36;18.40;99.90
21149;DHT22;10732;51.472;6.466;2023-08-06T10:09:02;18.20;99.90
21149;DHT22;10732;51.472;6.466;2023-08-06T10:11:29;18.10;99.90
21149;DHT22;10732;51.472;6.466;2023-08-06T10:14:00;18.00;99.90
21149;DHT22;10732;51.472;6.466;2023-08-06T10:16:29;18.10;99.90
21149;DHT22;10732;51.472;6.466;2023-08-06T10:18:55;17.90;99.90
21149;DHT22;10732;51.472;6.466;2023-08-06T10:21:23;17.80;99.90
21149;DHT22;10732;51.472;6.466;2023-08-06T10:23:54;17.50;99.90
21149;DHT22;10732;51.472;6.466;2023-08-06T10:26:20;17.40;99.90
21149;DHT22;10732;51.472;6.466;2023-08-06T10:28:45;17.50;99.90
21149;DHT22;10732;51.472;6.466;2023-08-06T10:31:11;17.40;99.90
21149;DHT22;10732;51.472;6.466;2023-08-06T10:33:45;17.10;99.90
21149;DHT22;10732;51.472;6.466;2023-08-06T10:36:11;16.90;99.90
21149;DHT22;10732;51.472;6.466;2023-08-06T10:38:50;16.70;99.90
21149;DHT22;10732;51.472;6.466;2023-08-06T10:41:22;16.50;99.90
21149;DHT22;10732;51.472;6.466;2023-08-06T10:43:49;16.40;99.90
21149;DHT22;10732;51.472;6.466;2023-08-06T10:46:27;16.40;99.90
21149;DHT22;10732;51.472;6.466;2023-08-06T10:48:52;16.30;99.90
21149;DHT22;10732;51.472;6.466;2023-08-06T10:51:18;16.20;99.90
21149;DHT22;10732;51.472;6.466;2023-08-06T10:53:46;16.30;99.90
21149;DHT22;10732;51.472;6.466;2023-08-06T10:56:19;16.30;99.90
21149;DHT22;10732;51.472;6.466;2023-08-06T10:58:46;16.10;99.90
21149;DHT22;10732;51.472;6.466;2023-08-06T11:01:12;16.10;99.90
21149;DHT22;10732;51.472;6.466;2023-08-06T11:03:39;16.10;99.90
21149;DHT22;10732;51.472;6.466;2023-08-06T11:06:09;16.00;99.90
21149;DHT22;10732;51.472;6.466;2023-08-06T11:08:37;16.00;99.90
21149;DHT22;10732;51.472;6.466;2023-08-06T11:11:29;16.10;99.90
21149;DHT22;10732;51.472;6.466;2023-08-06T11:13:54;16.00;99.90
21149;DHT22;10732;51.472;6.466;2023-08-06T11:16:24;16.00;99.90
21149;DHT22;10732;51.472;6.466;2023-08-06T11:18:50;16.00;99.90
21149;DHT22;10732;51.472;6.466;2023-08-06T11:21:19;16.10;99.90
21149;DHT22;10732;51.472;6.466;2023-08-06T11:23:45;16.10;99.90
21149;DHT22;10732;51.472;6.466;2023-08-06T11:26:10;16.10;99.90
21149;DHT22;10732;51.472;6.466;2023-08-06T11:28:36;16.10;99.90
21149;DHT22;10732;51.472;6.466;2023-08-06T11:31:01;15.90;99.90
21149;DHT22;10732;51.472;6.466;2023-08-06T11:33:29;16.00;99.90
21149;DHT22;10732;51.472;6.466;2023-08-06T11:35:55;16.10;99.90
21149;DHT22;10732;51.472;6.466;2023-08-06T11:38:24;16.10;99.90
21149;DHT22;10732;51.472;6.466;2023-08-06T11:40:50;16.10;99.90
21149;DHT22;10732;51.472;6.466;2023-08-06T11:43:18;16.10;99.90
21149;DHT22;10732;51.472;6.466;2023-08-06T11:45:44;16.20;99.90
21149;DHT22;10732;51.472;6.466;2023-08-06T11:48:10;16.00;99.90
21149;DHT22;10732;51.472;6.466;2023-08-06T11:50:38;15.80;99.90
21149;DHT22;10732;51.472;6.466;2023-08-06T11:53:04;15.80;99.90
21149;DHT22;10732;51.472;6.466;2023-08-06T11:55:30;15.80;99.90
21149;DHT22;10732;51.472;6.466;2023-08-06T11:57:56;15.90;99.90
21149;DHT22;10732;51.472;6.466;2023-08-06T12:00:26;15.80;99.90
21149;DHT22;10732;51.472;6.466;2023-08-06T12:02:52;15.90;99.90
21149;DHT22;10732;51.472;6.466;2023-08-06T12:05:20;16.00;99.90
21149;DHT22;10732;51.472;6.466;2023-08-06T12:07:54;16.10;99.90
21149;DHT22;10732;51.472;6.466;2023-08-06T12:10:21;16.20;99.90
21149;DHT22;10732;51.472;6.466;2023-08-06T12:12:47;16.20;99.90
21149;DHT22;10732;51.472;6.466;2023-08-06T12:15:14;16.10;99.90
21149;DHT22;10732;51.472;6.466;2023-08-06T12:17:40;16.00;99.90
21149;DHT22;10732;51.472;6.466;2023-08-06T12:20:06;16.10;99.90
21149;DHT22;10732;51.472;6.466;2023-08-06T12:22:33;16.10;99.90
21149;DHT22;10732;51.472;6.466;2023-08-06T12:25:07;16.00;99.90
21149;DHT22;10732;51.472;6.466;2023-08-06T12:27:44;15.90;99.90
21149;DHT22;10732;51.472;6.466;2023-08-06T12:30:10;16.10;99.90
21149;DHT22;10732;51.472;6.466;2023-08-06T12:32:37;16.10;99.90
21149;DHT22;10732;51.472;6.466;2023-08-06T12:35:03;16.10;99.90
21149;DHT22;10732;51.472;6.466;2023-08-06T12:37:30;16.00;99.90
21149;DHT22;10732;51.472;6.466;2023-08-06T12:39:55;16.10;99.90
21149;DHT22;10732;51.472;6.466;2023-08-06T12:42:21;16.20;99.90
21149;DHT22;10732;51.472;6.466;2023-08-06T12:44:48;16.20;99.90
21149;DHT22;10732;51.472;6.466;2023-08-06T12:47:14;16.20;99.90
21149;DHT22;10732;51.472;6.466;2023-08-06T12:49:39;16.20;99.90
21149;DHT22;10732;51.472;6.466;2023-08-06T12:52:05;16.30;99.90
21149;DHT22;10732;51.472;6.466;2023-08-06T12:54:33;16.10;99.90
21149;DHT22;10732;51.472;6.466;2023-08-06T12:57:04;16.10;99.90
21149;DHT22;10732;51.472;6.466;2023-08-06T12:59:31;15.90;99.90
21149;DHT22;10732;51.472;6.466;2023-08-06T13:01:56;16.00;99.90
21149;DHT22;10732;51.472;6.466;2023-08-06T13:04:22;16.00;99.90
21149;DHT22;10732;51.472;6.466;2023-08-06T13:06:47;15.90;99.90
21149;DHT22;10732;51.472;6.466;2023-08-06T13:09:13;16.00;99.90
21149;DHT22;10732;51.472;6.466;2023-08-06T13:11:40;15.80;99.90
21149;DHT22;10732;51.472;6.466;2023-08-06T13:14:07;15.80;99.90
21149;DHT22;10732;51.472;6.466;2023-08-06T13:16:33;15.80;99.90
21149;DHT22;10732;51.472;6.466;2023-08-06T13:19:00;15.90;99.90
21149;DHT22;10732;51.472;6.466;2023-08-06T13:21:33;16.00;99.90
21149;DHT22;10732;51.472;6.466;2023-08-06T13:24:00;16.00;99.90
21149;DHT22;10732;51.472;6.466;2023-08-06T13:26:27;15.90;99.90
21149;DHT22;10732;51.472;6.466;2023-08-06T13:28:52;15.70;99.90
21149;DHT22;10732;51.472;6.466;2023-08-06T13:31:18;15.80;99.90
21149;DHT22;10732;51.472;6.466;2023-08-06T13:33:43;15.80;99.90
21149;DHT22;10732;51.472;6.466;2023-08-06T13:36:09;15.70;99.90
21149;DHT22;10732;51.472;6.466;2023-08-06T13:38:34;15.70;99.90
21149;DHT22;10732;51.472;6.466;2023-08-06T13:41:01;15.70;99.90
21149;DHT22;10732;51.472;6.466;2023-08-06T13:43:27;15.60;99.90
21149;DHT22;10732;51.472;6.466;2023-08-06T13:45:53;15.80;99.90
21149;DHT22;10732;51.472;6.466;2023-08-06T13:48:19;15.70;99.90
21149;DHT22;10732;51.472;6.466;2023-08-06T13:50:44;15.60;99.90
21149;DHT22;10732;51.472;6.466;2023-08-06T13:53:10;15.80;99.90
21149;DHT22;10732;51.472;6.466;2023-08-06T13:55:36;15.80;99.90
21149;DHT22;10732;51.472;6.466;2023-08-06T13:58:01;15.90;99.90
21149;DHT22;10732;51.472;6.466;2023-08-06T14:00:27;16.00;99.90
21149;DHT22;10732;51.472;6.466;2023-08-06T14:02:52;16.10;99.90
21149;DHT22;10732;51.472;6.466;2023-08-06T14:05:18;16.20;99.90
21149;DHT22;10732;51.472;6.466;2023-08-06T14:07:43;16.30;99.90
21149;DHT22;10732;51.472;6.466;2023-08-06T14:10:09;16.20;99.90
21149;DHT22;10732;51.472;6.466;2023-08-06T14:12:35;16.20;99.90
21149;DHT22;10732;51.472;6.466;2023-08-06T14:15:00;16.30;99.90
21149;DHT22;10732;51.472;6.466;2023-08-06T14:17:27;16.30;99.90
21149;DHT22;10732;51.472;6.466;2023-08-06T14:19:52;16.30;99.90
21149;DHT22;10732;51.472;6.466;2023-08-06T14:22:18;16.50;99.90
21149;DHT22;10732;51.472;6.466;2023-08-06T14:24:43;16.50;99.90
21149;DHT22;10732;51.472;6.466;2023-08-06T14:27:09;16.50;99.90
21149;DHT22;10732;51.472;6.466;2023-08-06T14:29:35;16.40;99.90
21149;DHT22;10732;51.472;6.466;2023-08-06T14:32:00;16.50;99.90
21149;DHT22;10732;51.472;6.466;2023-08-06T14:34:26;16.40;99.90
21149;DHT22;10732;51.472;6.466;2023-08-06T14:36:52;16.40;99.90
21149;DHT22;10732;51.472;6.466;2023-08-06T14:39:18;16.50;99.90
21149;DHT22;10732;51.472;6.466;2023-08-06T14:41:44;16.50;99.90
21149;DHT22;10732;51.472;6.466;2023-08-06T14:44:09;16.50;99.90
21149;DHT22;10732;51.472;6.466;2023-08-06T14:46:36;16.50;99.90
21149;DHT22;10732;51.472;6.466;2023-08-06T14:49:01;16.40;99.90
21149;DHT22;10732;51.472;6.466;2023-08-06T14:51:27;16.40;99.90
21149;DHT22;10732;51.472;6.466;2023-08-06T14:53:53;16.60;99.90
21149;DHT22;10732;51.472;6.466;2023-08-06T14:56:18;16.60;99.90
21149;DHT22;10732;51.472;6.466;2023-08-06T14:58:44;16.70;99.90
21149;DHT22;10732;51.472;6.466;2023-08-06T15:01:10;16.80;99.90
21149;DHT22;10732;51.472;6.466;2023-08-06T15:03:35;16.60;99.90
21149;DHT22;10732;51.472;6.466;2023-08-06T15:06:01;16.50;99.90
21149;DHT22;10732;51.472;6.466;2023-08-06T15:08:26;16.50;99.90
21149;DHT22;10732;51.472;6.466;2023-08-06T15:10:53;16.30;99.90
21149;DHT22;10732;51.472;6.466;2023-08-06T15:13:19;16.40;99.90
21149;DHT22;10732;51.472;6.466;2023-08-06T15:15:47;16.30;99.90
21149;DHT22;10732;51.472;6.466;2023-08-06T15:18:12;16.40;99.90
21149;DHT22;10732;51.472;6.466;2023-08-06T15:20:38;16.50;99.90
21149;DHT22;10732;51.472;6.466;2023-08-06T15:23:03;16.70;99.90
21149;DHT22;10732;51.472;6.466;2023-08-06T15:25:29;16.50;99.90
21149;DHT22;10732;51.472;6.466;2023-08-06T15:27:54;16.50;99.90
21149;DHT22;10732;51.472;6.466;2023-08-06T15:30:20;16.50;99.90
21149;DHT22;10732;51.472;6.466;2023-08-06T15:32:46;16.40;99.90